createdAt,value
2023-05-22T17:21:23.320Z,98746.77
2023-05-22T17:23:51.124Z,98747.89
2023-05-22T17:26:18.568Z,98749.66
2023-05-22T17:28:46.567Z,98755.09
2023-05-22T17:31:14.083Z,98752.83
2023-05-22T17:33:41.884Z,98756.45
2023-05-22T17:36:09.387Z,98752.77
2023-05-22T17:38:37.482Z,98751.70
2023-05-22T17:41:04.866Z,98752.84
2023-05-22T17:43:36.386Z,98748.05
2023-05-22T17:46:04.294Z,98748.92
2023-05-22T17:48:31.635Z,98750.20
2023-05-22T17:51:00.995Z,98747.27
2023-05-22T17:53:34.801Z,98746.97
2023-05-22T17:56:03.420Z,98747.72
2023-05-22T17:58:32.273Z,98748.54
2023-05-22T18:00:59.819Z,98748.23
2023-05-22T18:03:27.222Z,98746.63
2023-05-22T18:05:55.075Z,98747.16
2023-05-22T18:08:23.140Z,98746.73
2023-05-22T18:10:50.705Z,98749.48
2023-05-22T18:13:19.689Z,98754.13
2023-05-22T18:15:48.346Z,98757.52
2023-05-22T18:18:16.685Z,98752.39
2023-05-22T18:20:46.194Z,98751.59
2023-05-22T18:23:13.721Z,98755.95
2023-05-22T18:25:41.679Z,98752.73
2023-05-22T18:28:09.218Z,98760.98
2023-05-22T18:30:36.585Z,98762.15
2023-05-22T18:33:03.954Z,98760.89
2023-05-22T18:35:31.435Z,98760.34
2023-05-22T18:38:00.510Z,98761.98
2023-05-22T18:40:28.026Z,98762.21
2023-05-22T18:42:55.477Z,98766.76
2023-05-22T18:45:23.006Z,98773.00
2023-05-22T18:47:50.563Z,98770.52
2023-05-22T18:50:18.272Z,98770.38
2023-05-22T18:52:45.800Z,98767.74
2023-05-22T18:55:13.051Z,98766.08
2023-05-22T18:57:40.484Z,98767.02
2023-05-22T19:00:10.206Z,98771.60
2023-05-22T19:02:37.647Z,98770.05
2023-05-22T19:05:06.586Z,98769.08
2023-05-22T19:07:33.904Z,98767.92
2023-05-22T19:10:01.506Z,98771.71
2023-05-22T19:12:31.708Z,98777.85
2023-05-22T19:15:00.108Z,98778.08
2023-05-22T19:17:27.562Z,98778.59
2023-05-22T19:19:54.989Z,98780.45
2023-05-22T19:22:24.206Z,98775.90
2023-05-22T19:24:51.584Z,98780.42
2023-05-22T19:27:18.995Z,98782.99
2023-05-22T19:29:46.355Z,98784.18
2023-05-22T19:32:14.292Z,98785.86
2023-05-22T19:34:42.171Z,98787.52
2023-05-22T19:37:09.604Z,98785.44
2023-05-22T19:39:37.092Z,98786.21
2023-05-22T19:42:08.142Z,98792.77
2023-05-22T19:44:35.743Z,98788.33
2023-05-22T19:47:03.061Z,98784.41
2023-05-22T19:49:31.704Z,98789.23
2023-05-22T19:51:59.658Z,98789.73
2023-05-22T19:54:26.995Z,98790.22
2023-05-22T19:56:54.452Z,98794.52
2023-05-22T19:59:21.752Z,98793.55
2023-05-22T20:01:51.367Z,98792.95
2023-05-22T20:04:21.525Z,98790.32
2023-05-22T20:06:51.695Z,98786.58
2023-05-22T20:09:19.223Z,98787.04
2023-05-22T20:11:46.801Z,98792.84
2023-05-22T20:14:14.466Z,98790.42
2023-05-22T20:16:42.269Z,98789.20
2023-05-22T20:19:10.468Z,98787.04
2023-05-22T20:21:37.988Z,98793.98
2023-05-22T20:24:12.113Z,98794.09
2023-05-22T20:26:39.462Z,98795.36
2023-05-22T20:29:06.798Z,98794.04
2023-05-22T20:31:34.725Z,98796.15
2023-05-22T20:34:04.036Z,98797.77
2023-05-22T20:36:32.726Z,98798.88
2023-05-22T20:39:00.153Z,98795.52
2023-05-22T20:41:27.802Z,98790.48
2023-05-22T20:43:55.195Z,98793.30
2023-05-22T20:46:23.039Z,98791.42
2023-05-22T20:48:51.347Z,98786.94
2023-05-22T20:51:20.593Z,98787.49
2023-05-22T20:53:48.519Z,98786.67
2023-05-22T20:56:15.871Z,98786.02
2023-05-22T20:58:43.168Z,98789.73
2023-05-22T21:01:10.539Z,98788.26
2023-05-22T21:03:37.984Z,98784.87
2023-05-22T21:06:05.985Z,98779.20
2023-05-22T21:08:33.307Z,98778.65
2023-05-22T21:11:00.808Z,98778.86
2023-05-22T21:13:28.114Z,98779.63
2023-05-22T21:15:55.473Z,98777.25
2023-05-22T21:18:23.027Z,98773.05
2023-05-22T21:20:50.395Z,98779.12
2023-05-22T21:23:17.704Z,98779.41
2023-05-22T21:25:44.971Z,98773.38
2023-05-22T21:28:12.380Z,98774.83
2023-05-22T21:30:39.832Z,98774.04
2023-05-22T21:33:07.374Z,98773.77
2023-05-22T21:35:34.844Z,98769.33
2023-05-22T21:38:02.653Z,98774.27
2023-05-22T21:40:30.011Z,98772.60
2023-05-22T21:42:57.570Z,98769.17
2023-05-22T21:45:25.009Z,98769.94
2023-05-22T21:47:52.781Z,98776.31
2023-05-22T21:50:20.281Z,98774.33
2023-05-22T21:52:47.601Z,98775.72
2023-05-22T21:55:15.211Z,98778.85
2023-05-22T21:57:42.535Z,98779.75
2023-05-22T22:00:10.771Z,98784.29
2023-05-22T22:02:38.131Z,98782.48
2023-05-22T22:05:06.092Z,98788.08
2023-05-22T22:07:33.456Z,98785.70
2023-05-22T22:10:00.932Z,98787.15
2023-05-22T22:12:28.298Z,98785.69
2023-05-22T22:14:57.087Z,98787.13
2023-05-22T22:17:24.396Z,98782.95
2023-05-22T22:19:53.635Z,98786.80
2023-05-22T22:22:22.867Z,98785.86
2023-05-22T22:24:50.774Z,98777.56
2023-05-22T22:27:18.206Z,98777.60
2023-05-22T22:29:45.592Z,98781.66
2023-05-22T22:32:13.096Z,98782.93
2023-05-22T22:34:40.579Z,98778.77
2023-05-22T22:37:07.998Z,98780.67
2023-05-22T22:39:35.618Z,98778.23
2023-05-22T22:42:05.257Z,98776.48
2023-05-22T22:44:32.813Z,98773.31
2023-05-22T22:47:04.647Z,98773.49
2023-05-22T22:49:32.313Z,98774.76
2023-05-22T22:51:59.697Z,98778.31
2023-05-22T22:54:27.070Z,98777.19
2023-05-22T22:56:54.572Z,98780.45
2023-05-22T22:59:21.912Z,98776.77
2023-05-22T23:01:49.270Z,98774.73
2023-05-22T23:04:16.947Z,98774.98
2023-05-22T23:06:44.525Z,98772.27
2023-05-22T23:09:11.871Z,98775.80
2023-05-22T23:11:39.198Z,98767.23
2023-05-22T23:14:07.719Z,98769.16
2023-05-22T23:16:36.105Z,98765.40
2023-05-22T23:19:04.372Z,98766.16
2023-05-22T23:21:32.103Z,98767.59
2023-05-22T23:24:00.373Z,98766.58
2023-05-22T23:26:28.415Z,98765.38
2023-05-22T23:28:55.920Z,98766.39
2023-05-22T23:31:25.978Z,98764.48
2023-05-22T23:33:53.900Z,98756.64
2023-05-22T23:36:21.241Z,98756.25
2023-05-22T23:38:48.663Z,98759.70
2023-05-22T23:41:18.941Z,98756.78
2023-05-22T23:43:46.487Z,98758.40
2023-05-22T23:46:14.218Z,98756.77
2023-05-22T23:48:42.407Z,98758.02
2023-05-22T23:51:10.178Z,98752.84
2023-05-22T23:53:37.649Z,98753.92
2023-05-22T23:56:05.177Z,98751.73
2023-05-22T23:58:32.553Z,98751.84
